Time;durP1;ratioP1;P1;durP2;ratioP2;P2;SDS_P1;SDS_P2;PMS_P1;PMS_P2;Temp;Humidity;BMP_temperature;BMP_pressure;BME280_temperature;BME280_humidity;BME280_pressure;Samples;Min_cycle;Max_cycle;Signal;HPM_P1;HPM_P2
2022/03/10 00:00:04;;;;;;;22.35;18.95;;;;;;;-1.16;70.05;96536.88;5052364;28;24420;-75
2022/03/10 00:02:30;;;;;;;26.80;19.35;;;;;;;-1.25;70.14;96541.16;5053077;28;24849;-75
2022/03/10 00:04:57;;;;;;;24.88;20.33;;;;;;;-1.43;72.18;96545.47;5052834;28;24994;-75
2022/03/10 00:07:23;;;;;;;23.05;20.02;;;;;;;-1.37;72.18;96548.84;5052856;28;24983;-75
2022/03/10 00:09:51;;;;;;;27.60;20.60;;;;;;;-1.40;71.88;96546.31;5052871;28;24434;-75
2022/03/10 00:12:18;;;;;;;22.10;19.60;;;;;;;-1.57;72.34;96546.34;5053014;28;24431;-76
2022/03/10 00:14:44;;;;;;;22.98;19.23;;;;;;;-1.50;72.49;96550.56;5052503;28;24456;-75
2022/03/10 00:17:11;;;;;;;23.50;17.70;;;;;;;-1.51;72.24;96548.03;5052853;28;24431;-75
2022/03/10 00:19:37;;;;;;;24.47;18.03;;;;;;;-1.46;72.17;96552.25;5052621;28;24429;-74
2022/03/10 00:22:04;;;;;;;21.77;17.10;;;;;;;-1.66;72.53;96551.47;5052610;28;24434;-75
2022/03/10 00:24:31;;;;;;;23.33;16.50;;;;;;;-1.64;73.07;96559.06;5052521;28;24455;-75
2022/03/10 00:26:58;;;;;;;22.55;17.42;;;;;;;-1.66;72.88;96550.63;5052672;28;24474;-75
2022/03/10 00:29:25;;;;;;;22.85;17.13;;;;;;;-1.58;72.75;96556.53;5052175;28;24516;-75
2022/03/10 00:31:51;;;;;;;25.15;18.63;;;;;;;-1.77;72.35;96561.66;5052623;28;24434;-75
2022/03/10 00:34:18;;;;;;;22.90;17.60;;;;;;;-1.96;74.71;96565.91;5052410;28;24459;-75
2022/03/10 00:36:45;;;;;;;23.63;18.77;;;;;;;-2.02;75.22;96572.69;5052290;28;24435;-75
2022/03/10 00:39:12;;;;;;;22.05;18.00;;;;;;;-1.93;74.61;96569.28;5052472;28;24485;-75
2022/03/10 00:41:38;;;;;;;24.98;18.52;;;;;;;-1.85;73.97;96570.16;5052496;28;24419;-75
2022/03/10 00:44:06;;;;;;;21.52;16.92;;;;;;;-1.80;73.68;96568.44;5052163;28;24481;-75
2022/03/10 00:46:33;;;;;;;24.13;19.17;;;;;;;-1.75;73.77;96567.56;5051839;28;24991;-75
2022/03/10 00:48:59;;;;;;;27.17;19.60;;;;;;;-1.63;73.17;96568.38;5052244;28;24431;-75
2022/03/10 00:51:26;;;;;;;29.17;21.58;;;;;;;-1.65;72.71;96565.84;5052285;28;24473;-75
2022/03/10 00:53:52;;;;;;;38.10;23.60;;;;;;;-1.72;72.35;96565.00;5052026;28;24431;-75
2022/03/10 00:56:19;;;;;;;31.65;23.38;;;;;;;-1.84;73.81;96567.59;5051934;28;24450;-76
2022/03/10 00:58:45;;;;;;;25.15;21.70;;;;;;;-1.81;73.54;96564.22;5052006;28;24430;-75
2022/03/10 01:01:13;;;;;;;29.38;21.13;;;;;;;-1.85;73.05;96562.53;5051458;28;25032;-75
2022/03/10 01:03:40;;;;;;;26.90;21.98;;;;;;;-1.80;72.83;96559.13;5051435;28;24870;-75
2022/03/10 01:06:06;;;;;;;27.80;21.45;;;;;;;-1.82;72.98;96565.03;5051694;28;24434;-75
2022/03/10 01:08:33;;;;;;;22.08;19.45;;;;;;;-1.85;73.21;96565.91;5051466;28;24959;-75
2022/03/10 01:10:59;;;;;;;27.13;20.90;;;;;;;-1.87;73.10;96561.66;5051279;28;24431;-75
2022/03/10 01:13:26;;;;;;;24.57;20.63;;;;;;;-1.88;73.07;96557.44;5051494;28;24423;-74
2022/03/10 01:15:52;;;;;;;25.65;20.20;;;;;;;-1.81;72.45;96559.97;5051272;28;24995;-75
2022/03/10 01:18:20;;;;;;;24.65;20.58;;;;;;;-1.80;71.84;96554.03;5051610;28;24423;-75
2022/03/10 01:20:47;;;;;;;30.43;22.97;;;;;;;-1.82;72.40;96550.63;5051651;28;24528;-75
2022/03/10 01:23:13;;;;;;;34.03;25.35;;;;;;;-1.98;73.26;96542.22;5051688;28;24419;-75
2022/03/10 01:25:40;;;;;;;33.20;25.27;;;;;;;-2.23;74.32;96549.00;5051123;28;24498;-75
2022/03/10 01:28:07;;;;;;;40.00;25.67;;;;;;;-2.22;74.68;96547.34;5051280;28;24423;-75
2022/03/10 01:30:33;;;;;;;34.42;25.85;;;;;;;-2.10;74.37;96552.38;5051274;28;24434;-75
2022/03/10 01:33:00;;;;;;;37.60;26.17;;;;;;;-1.99;73.62;96549.84;5051120;28;24419;-75
2022/03/10 01:35:28;;;;;;;28.10;22.50;;;;;;;-1.94;73.83;96543.06;5051185;28;24555;-75
2022/03/10 01:37:54;;;;;;;38.45;24.20;;;;;;;-1.94;72.81;96558.28;5051245;28;24438;-77
2022/03/10 01:40:21;;;;;;;28.42;23.17;;;;;;;-1.90;72.75;96551.50;5050841;28;24426;-75
2022/03/10 01:42:48;;;;;;;30.63;23.60;;;;;;;-1.87;72.95;96546.44;5051425;28;24510;-75
2022/03/10 01:45:15;;;;;;;31.13;23.83;;;;;;;-1.83;72.57;96548.97;5050844;28;24788;-75
2022/03/10 01:47:42;;;;;;;29.38;22.23;;;;;;;-1.81;73.04;96549.81;5051437;28;24785;-75
2022/03/10 01:50:12;;;;;;;40.65;24.83;;;;;;;-1.81;72.38;96549.81;5051107;28;24434;-75
2022/03/10 01:52:41;;;;;;;35.37;24.70;;;;;;;-1.85;72.77;96548.13;5051107;28;24435;-75
2022/03/10 01:55:08;;;;;;;28.35;21.45;;;;;;;-1.85;72.45;96553.22;5050709;28;24550;-75
2022/03/10 01:57:35;;;;;;;28.17;20.13;;;;;;;-1.95;72.68;96539.69;5051069;28;24434;-75
2022/03/10 02:00:02;;;;;;;23.60;19.13;;;;;;;-2.00;73.82;96540.53;5050861;28;24480;-75
2022/03/10 02:02:29;;;;;;;24.58;18.65;;;;;;;-2.02;73.37;96539.69;5051045;28;24514;-75
2022/03/10 02:04:55;;;;;;;23.13;17.70;;;;;;;-2.00;74.42;96541.38;5050982;28;24426;-75
2022/03/10 02:10:20;;;;;;;19.25;16.75;;;;;;;-2.18;74.73;96538.88;5050496;28;24395;-74
2022/03/10 02:12:48;;;;;;;21.75;17.42;;;;;;;-2.35;75.87;96536.31;5050596;28;24786;-75
2022/03/10 02:18:00;;;;;;;23.75;18.38;;;;;;;-2.27;75.11;96538.84;5050505;28;24419;-74
2022/03/10 02:20:27;;;;;;;27.92;18.33;;;;;;;-2.50;74.85;96541.41;5050650;28;24423;-75
2022/03/10 02:22:55;;;;;;;27.77;18.92;;;;;;;-2.82;76.32;96538.81;5050188;28;24804;-75
2022/03/10 02:25:22;;;;;;;21.38;18.58;;;;;;;-2.95;78.69;96543.03;5050689;28;24435;-75
2022/03/10 02:27:53;;;;;;;27.95;18.98;;;;;;;-2.87;78.52;96538.81;5050410;28;24455;-75
2022/03/10 02:30:21;;;;;;;30.05;20.05;;;;;;;-2.95;79.25;96530.34;5050629;28;24423;-75
2022/03/10 02:32:47;;;;;;;24.73;19.40;;;;;;;-2.89;79.33;96532.91;5050648;28;24518;-75
2022/03/10 02:35:15;;;;;;;23.23;18.85;;;;;;;-2.83;78.94;96529.53;5050180;28;25315;-75
2022/03/10 02:37:41;;;;;;;21.55;18.77;;;;;;;-2.83;79.08;96529.53;5050617;28;24935;-75
2022/03/10 02:40:11;;;;;;;27.17;22.60;;;;;;;-2.77;78.93;96527.00;5050274;28;24419;-75
2022/03/10 02:42:38;;;;;;;39.97;24.25;;;;;;;-2.68;78.59;96529.53;5050426;28;24430;-75
2022/03/10 02:45:06;;;;;;;30.25;22.77;;;;;;;-2.71;78.22;96522.81;5050304;28;24428;-75
2022/03/10 02:47:32;;;;;;;38.72;22.85;;;;;;;-2.74;78.09;96524.50;5050403;28;24423;-75
2022/03/10 02:49:59;;;;;;;27.17;20.85;;;;;;;-2.73;77.50;96531.25;5050227;28;24415;-75
2022/03/10 02:52:26;;;;;;;26.60;20.98;;;;;;;-2.69;77.85;96525.31;5050442;28;24953;-75
2022/03/10 02:54:52;;;;;;;29.00;21.07;;;;;;;-2.62;77.70;96537.16;5050335;28;24524;-74
2022/03/10 02:57:20;;;;;;;26.33;20.75;;;;;;;-2.54;76.83;96538.00;5050482;28;24832;-75
2022/03/10 02:59:46;;;;;;;26.67;21.60;;;;;;;-2.51;76.57;96532.94;5050533;28;24426;-75
2022/03/10 03:02:14;;;;;;;29.35;21.13;;;;;;;-2.52;76.82;96531.28;5050402;28;24423;-75
2022/03/10 03:04:40;;;;;;;33.73;21.50;;;;;;;-2.56;76.71;96532.13;5050105;28;24518;-75
2022/03/10 03:07:07;;;;;;;28.98;20.20;;;;;;;-2.57;77.15;96538.00;5050212;28;24791;-75
2022/03/10 03:09:33;;;;;;;25.15;20.35;;;;;;;-2.58;76.41;96535.47;5049926;28;24439;-75
2022/03/10 03:12:00;;;;;;;24.63;19.38;;;;;;;-2.59;76.52;96537.19;5050324;28;24473;-75
2022/03/10 03:14:27;;;;;;;22.73;18.98;;;;;;;-2.65;76.18;96538.84;5049971;28;24435;-75
2022/03/10 03:16:56;;;;;;;28.05;20.40;;;;;;;-2.77;77.08;96540.53;5050142;28;24493;-75
2022/03/10 03:19:22;;;;;;;26.08;21.38;;;;;;;-2.77;77.04;96534.63;5050160;28;24428;-74
2022/03/10 03:21:49;;;;;;;23.73;19.55;;;;;;;-2.72;76.38;96543.91;5050084;28;24469;-75
2022/03/10 03:24:15;;;;;;;30.08;19.98;;;;;;;-2.60;76.08;96550.69;5050072;28;24817;-75
2022/03/10 03:26:42;;;;;;;28.45;21.33;;;;;;;-2.57;75.69;96549.84;5049800;28;24423;-75
2022/03/10 03:29:08;;;;;;;25.15;20.63;;;;;;;-2.61;75.59;96548.16;5049716;28;24454;-74
2022/03/10 03:31:36;;;;;;;24.83;20.45;;;;;;;-2.62;75.79;96546.47;5049893;28;24940;-75
2022/03/10 03:34:09;;;;;;;27.38;21.45;;;;;;;-2.70;75.68;96544.78;5049846;28;24422;-75
2022/03/10 03:36:36;;;;;;;29.77;22.30;;;;;;;-2.72;76.43;96553.22;5053619;28;24435;-75
2022/03/10 03:39:03;;;;;;;22.85;20.23;;;;;;;-2.83;77.59;96552.34;5053191;28;24419;-75
2022/03/10 03:41:29;;;;;;;28.88;20.63;;;;;;;-2.82;76.67;96559.09;5053553;28;24431;-75
2022/03/10 03:43:55;;;;;;;27.70;20.35;;;;;;;-2.87;77.24;96559.09;5053532;28;24442;-75
2022/03/10 03:46:22;;;;;;;25.83;20.15;;;;;;;-2.92;76.90;96558.25;5053193;28;24963;-75
2022/03/10 03:48:50;;;;;;;24.83;20.33;;;;;;;-2.86;77.19;96567.53;5053097;28;24430;-75
2022/03/10 03:51:16;;;;;;;26.77;19.83;;;;;;;-2.87;76.54;96568.41;5053282;28;24427;-75
2022/03/10 03:53:42;;;;;;;24.25;18.95;;;;;;;-2.79;76.33;96562.47;5053358;28;24427;-75
2022/03/10 03:56:09;;;;;;;20.97;18.47;;;;;;;-2.79;77.07;96565.03;5053156;28;24454;-74
2022/03/10 03:58:35;;;;;;;25.27;18.98;;;;;;;-2.79;76.74;96565.03;5053149;28;24415;-75
2022/03/10 04:01:02;;;;;;;32.15;20.42;;;;;;;-2.75;76.25;96569.25;5053389;28;24625;-74
2022/03/10 04:03:28;;;;;;;26.20;20.58;;;;;;;-2.87;75.25;96568.41;5052855;28;24426;-75
2022/03/10 04:05:56;;;;;;;27.33;20.67;;;;;;;-3.02;76.27;96576.81;5053119;28;24427;-75
2022/03/10 04:08:23;;;;;;;26.63;20.08;;;;;;;-3.02;77.19;96575.09;5052892;28;24840;-75
2022/03/10 04:10:51;;;;;;;22.67;20.13;;;;;;;-2.97;76.39;96580.19;5052712;28;24953;-75
2022/03/10 04:13:17;;;;;;;23.58;20.05;;;;;;;-2.96;76.29;96581.91;5052902;28;24427;-75
2022/03/10 04:15:44;;;;;;;25.30;21.75;;;;;;;-2.95;76.39;96584.44;5053096;28;24454;-74
2022/03/10 04:18:10;;;;;;;24.53;20.00;;;;;;;-2.92;76.12;96583.59;5052751;28;24527;-75
2022/03/10 04:20:37;;;;;;;24.73;19.38;;;;;;;-3.01;76.85;96586.94;5052772;28;24502;-75
2022/03/10 04:23:05;;;;;;;24.45;19.25;;;;;;;-3.04;78.19;96575.94;5052519;28;24781;-74
2022/03/10 04:25:31;;;;;;;27.33;21.40;;;;;;;-3.10;78.12;96583.53;5052213;28;25028;-75
2022/03/10 04:27:58;;;;;;;26.38;20.65;;;;;;;-3.32;78.56;96578.38;5052174;28;24907;-75
2022/03/10 04:30:24;;;;;;;28.42;20.52;;;;;;;-3.54;80.75;96572.38;5052512;28;24477;-75
2022/03/10 04:32:51;;;;;;;24.05;20.40;;;;;;;-3.60;81.26;96569.78;5052702;28;24924;-75
2022/03/10 04:35:20;;;;;;;24.45;21.08;;;;;;;-3.62;81.67;96568.97;5052051;28;24471;-75
2022/03/10 04:37:49;;;;;;;26.97;21.80;;;;;;;-3.57;81.55;96577.41;5052392;28;24953;-74
2022/03/10 04:40:18;;;;;;;30.00;22.52;;;;;;;-3.36;81.04;96580.91;5052225;28;24419;-75
2022/03/10 04:42:44;;;;;;;31.00;22.33;;;;;;;-3.34;80.64;96579.19;5052412;28;24432;-75
2022/03/10 04:45:11;;;;;;;27.50;20.95;;;;;;;-3.35;81.24;96580.91;5052443;28;24430;-75
2022/03/10 04:47:39;;;;;;;26.83;20.52;;;;;;;-3.39;79.43;96576.66;5051248;28;24781;-75
2022/03/10 04:50:06;;;;;;;23.77;18.63;;;;;;;-3.61;81.58;96572.34;5052200;28;24451;-74
2022/03/10 04:52:33;;;;;;;25.20;19.00;;;;;;;-3.58;82.40;96574.88;5052165;28;24530;-75
2022/03/10 04:55:00;;;;;;;22.67;19.05;;;;;;;-3.58;82.42;96574.88;5052071;28;24427;-75
2022/03/10 04:57:28;;;;;;;26.88;19.73;;;;;;;-3.61;81.03;96573.19;5052178;28;24439;-75
2022/03/10 04:59:54;;;;;;;22.77;20.27;;;;;;;-3.76;81.13;96571.41;5051840;28;24415;-75
2022/03/10 05:02:21;;;;;;;24.08;20.00;;;;;;;-3.69;81.28;96565.53;5052550;28;24804;-74
2022/03/10 05:04:47;;;;;;;28.15;19.60;;;;;;;-3.63;81.84;96568.94;5052158;28;24454;-74
2022/03/10 05:07:14;;;;;;;23.30;19.37;;;;;;;-3.58;80.93;96570.66;5051607;28;24865;-74
2022/03/10 05:09:40;;;;;;;23.63;19.05;;;;;;;-3.55;80.71;96568.16;5051243;28;24422;-74
2022/03/10 05:12:07;;;;;;;25.75;20.25;;;;;;;-3.47;81.52;96566.50;5051413;28;24549;-75
2022/03/10 05:14:35;;;;;;;23.27;19.13;;;;;;;-3.42;81.12;96564.81;5050679;28;25099;-74
2022/03/10 05:17:02;;;;;;;35.42;20.15;;;;;;;-3.36;80.61;96560.63;5042365;28;24451;-73
2022/03/10 05:19:29;;;;;;;24.90;19.63;;;;;;;-3.42;79.90;96569.03;5046595;28;24450;-73
2022/03/10 05:21:55;;;;;;;27.27;19.83;;;;;;;-3.44;79.96;96568.22;5043039;28;24431;-73
2022/03/10 05:24:21;;;;;;;20.60;18.30;;;;;;;-3.42;80.23;96569.88;5041219;28;24518;-74
2022/03/10 05:26:48;;;;;;;23.92;17.55;;;;;;;-3.47;80.45;96566.50;5044785;28;24434;-73
2022/03/10 05:29:14;;;;;;;24.88;18.52;;;;;;;-3.47;81.32;96561.44;5040395;28;24431;-73
2022/03/10 05:31:42;;;;;;;23.63;19.17;;;;;;;-3.45;80.63;96567.38;5031194;28;24766;-72
2022/03/10 05:34:09;;;;;;;25.10;19.30;;;;;;;-3.45;81.05;96559.78;5031038;28;24428;-74
2022/03/10 05:36:36;;;;;;;25.17;18.88;;;;;;;-3.53;80.81;96563.94;5030739;28;24494;-74
2022/03/10 05:39:03;;;;;;;24.17;19.10;;;;;;;-3.63;81.61;96574.00;5030394;28;24482;-74
2022/03/10 05:41:31;;;;;;;30.05;20.50;;;;;;;-3.70;81.94;96566.38;5031122;28;24945;-74
2022/03/10 05:43:57;;;;;;;25.45;18.85;;;;;;;-3.68;82.39;96568.91;5030873;28;24789;-73
2022/03/10 05:46:24;;;;;;;30.70;21.42;;;;;;;-3.61;81.77;96568.13;5030587;28;24968;-73
2022/03/10 05:48:51;;;;;;;25.27;19.63;;;;;;;-3.68;81.32;96582.41;5048085;28;24435;-73
2022/03/10 05:51:18;;;;;;;25.10;19.33;;;;;;;-3.81;83.10;96573.06;5047934;28;24467;-74
2022/03/10 05:53:45;;;;;;;31.48;19.02;;;;;;;-3.85;83.03;96578.13;5030952;28;24792;-75
2022/03/10 05:56:11;;;;;;;22.63;18.27;;;;;;;-3.86;83.31;96574.72;5030728;28;24454;-74
2022/03/10 05:58:38;;;;;;;21.85;18.30;;;;;;;-3.78;83.24;96573.09;5030423;28;24432;-70
2022/03/10 06:01:04;;;;;;;31.92;20.35;;;;;;;-3.63;82.52;96584.13;5030682;28;24963;-75
2022/03/10 06:03:31;;;;;;;23.77;20.15;;;;;;;-3.57;82.29;96579.94;5030960;28;24427;-75
2022/03/10 06:05:59;;;;;;;26.63;20.90;;;;;;;-3.45;82.18;96581.69;5030713;28;24490;-74
2022/03/10 06:08:25;;;;;;;31.38;21.95;;;;;;;-3.49;80.43;96588.41;5030667;28;24816;-75
2022/03/10 06:10:52;;;;;;;42.55;25.10;;;;;;;-3.52;81.56;96579.97;5030233;28;24458;-74
2022/03/10 06:13:18;;;;;;;35.10;22.90;;;;;;;-3.45;82.09;96579.16;5030686;28;24532;-75
2022/03/10 06:15:45;;;;;;;26.15;22.33;;;;;;;-3.34;80.80;96582.59;5030633;28;24428;-74
2022/03/10 06:18:12;;;;;;;29.52;20.85;;;;;;;-3.20;80.30;96575.03;5030524;28;24424;-73
2022/03/10 06:20:38;;;;;;;36.13;24.48;;;;;;;-3.17;80.56;96583.50;5030499;28;24470;-74
2022/03/10 06:23:06;;;;;;;41.47;26.92;;;;;;;-3.10;80.02;96581.84;5030563;28;24435;-74
2022/03/10 06:25:32;;;;;;;35.80;26.20;;;;;;;-3.06;80.92;96580.16;5030230;28;24424;-74
2022/03/10 06:27:59;;;;;;;31.73;24.77;;;;;;;-3.01;81.22;96583.56;5030264;28;24423;-73
2022/03/10 06:30:25;;;;;;;35.42;24.48;;;;;;;-2.99;81.87;96580.19;5030492;28;24530;-74
2022/03/10 06:32:52;;;;;;;34.20;24.80;;;;;;;-2.96;83.05;96586.97;5030536;28;24428;-74
2022/03/10 06:35:18;;;;;;;35.67;24.70;;;;;;;-2.87;82.62;96584.44;5030183;28;24442;-74
2022/03/10 06:37:46;;;;;;;35.83;23.42;;;;;;;-2.69;82.47;96591.25;5030132;28;24490;-74
2022/03/10 06:40:15;;;;;;;33.75;24.25;;;;;;;-2.63;83.82;96590.41;5030134;28;24428;-73
2022/03/10 06:42:41;;;;;;;35.58;23.83;;;;;;;-2.68;85.11;96588.72;5030158;28;24845;-73
2022/03/10 06:45:08;;;;;;;35.43;23.30;;;;;;;-2.74;86.52;96580.28;5029852;28;24430;-74
2022/03/10 06:47:35;;;;;;;40.17;23.87;;;;;;;-2.47;85.37;96575.22;5030422;28;24427;-74
2022/03/10 06:50:02;;;;;;;44.22;23.77;;;;;;;-2.23;84.05;96578.59;5030043;28;24431;-74
2022/03/10 06:52:31;;;;;;;29.48;23.10;;;;;;;-2.26;85.86;96582.00;5030138;28;24474;-73
2022/03/10 06:54:57;;;;;;;44.90;24.67;;;;;;;-2.08;86.14;96586.22;5030221;28;24431;-73
2022/03/10 06:57:25;;;;;;;36.88;24.48;;;;;;;-2.08;87.07;96590.44;5030212;28;24443;-74
2022/03/10 06:59:52;;;;;;;44.90;24.48;;;;;;;-2.01;85.58;96592.13;5030091;28;24427;-73
2022/03/10 07:02:18;;;;;;;36.95;24.23;;;;;;;-1.97;86.09;96589.59;5030340;28;24427;-73
2022/03/10 07:04:45;;;;;;;38.85;25.30;;;;;;;-1.89;84.69;96589.63;5029713;28;24412;-74
2022/03/10 07:07:11;;;;;;;33.90;23.50;;;;;;;-1.75;84.63;96587.03;5029717;28;24841;-73
2022/03/10 07:09:38;;;;;;;35.22;23.90;;;;;;;-1.42;82.75;96591.19;5030643;28;24514;-74
2022/03/10 07:12:05;;;;;;;32.92;22.63;;;;;;;-1.11;81.26;96599.59;5034023;28;24419;-73
2022/03/10 07:14:33;;;;;;;29.48;22.85;;;;;;;-0.81;80.84;96603.69;5033486;28;24440;-74
2022/03/10 07:16:59;;;;;;;28.77;21.95;;;;;;;-0.55;79.44;96600.16;5033715;28;24450;-74
2022/03/10 07:19:26;;;;;;;33.80;25.02;;;;;;;-0.35;79.30;96598.31;5033703;28;24427;-73
2022/03/10 07:21:52;;;;;;;36.53;22.63;;;;;;;-0.11;78.53;96602.41;5033601;28;25010;-73
2022/03/10 07:24:18;;;;;;;34.65;24.30;;;;;;;-0.07;74.78;96609.16;5033711;28;24431;-74
2022/03/10 07:26:45;;;;;;;30.83;23.85;;;;;;;-0.10;71.55;96610.88;5033687;28;24415;-74
2022/03/10 07:29:11;;;;;;;33.13;24.17;;;;;;;0.04;71.04;96614.16;5033512;28;24424;-74
2022/03/10 07:31:39;;;;;;;31.23;23.45;;;;;;;-0.11;70.98;96616.81;5046500;28;24438;-75
2022/03/10 07:34:06;;;;;;;30.48;22.42;;;;;;;-0.03;70.84;96612.53;5053334;28;24435;-73
2022/03/10 07:36:32;;;;;;;31.85;22.67;;;;;;;0.11;71.81;96613.25;5053466;28;24443;-75
2022/03/10 07:38:59;;;;;;;32.92;22.90;;;;;;;0.48;70.42;96613.75;5053214;28;24944;-75
2022/03/10 07:41:25;;;;;;;31.70;23.08;;;;;;;0.85;69.02;96622.72;5053752;28;24431;-75
2022/03/10 07:43:52;;;;;;;27.17;22.63;;;;;;;1.13;66.26;96616.44;5053327;28;24423;-74
2022/03/10 07:46:22;;;;;;;28.58;21.05;;;;;;;1.27;65.84;96616.28;5053127;28;24423;-75
2022/03/10 07:48:51;;;;;;;30.33;22.20;;;;;;;1.26;64.67;96611.16;5053141;28;24476;-75
2022/03/10 07:51:17;;;;;;;33.07;22.37;;;;;;;1.23;64.46;96612.06;5048538;28;24515;-75
2022/03/10 07:53:44;;;;;;;28.83;22.67;;;;;;;1.52;67.11;96608.28;5049888;28;24446;-75
2022/03/10 07:56:10;;;;;;;31.23;21.88;;;;;;;1.92;64.75;96601.72;5052727;28;24435;-75
2022/03/10 07:58:37;;;;;;;27.55;21.40;;;;;;;2.20;61.88;96593.63;5036600;28;24459;-75
2022/03/10 08:01:03;;;;;;;27.67;22.55;;;;;;;2.21;61.23;96594.47;5052414;28;24447;-73
2022/03/10 08:03:29;;;;;;;31.80;23.17;;;;;;;2.47;61.64;96599.97;5037847;28;24424;-73
2022/03/10 08:05:57;;;;;;;33.10;22.83;;;;;;;2.60;60.81;96601.44;5032934;28;24432;-74
2022/03/10 08:08:24;;;;;;;32.03;24.48;;;;;;;2.32;60.86;96595.13;5032943;28;24432;-73
2022/03/10 08:10:50;;;;;;;40.75;25.33;;;;;;;2.35;61.38;96597.63;5033017;28;24494;-74
2022/03/10 08:13:18;;;;;;;34.63;23.53;;;;;;;2.17;61.41;96591.94;5032581;28;24442;-73
2022/03/10 08:15:45;;;;;;;29.27;23.43;;;;;;;2.39;60.75;96594.16;5032462;28;24470;-73
2022/03/10 08:18:12;;;;;;;26.75;21.67;;;;;;;2.42;63.18;96604.31;5032540;28;24447;-74
2022/03/10 08:20:39;;;;;;;40.08;27.85;;;;;;;2.51;60.49;96604.16;5032481;28;24436;-73
2022/03/10 08:23:07;;;;;;;38.55;27.85;;;;;;;2.43;61.10;96593.22;5032701;28;24424;-76
2022/03/10 08:25:34;;;;;;;32.42;24.67;;;;;;;2.36;61.70;96592.47;5032585;28;24498;-73
2022/03/10 08:28:01;;;;;;;27.88;22.00;;;;;;;2.25;61.52;96585.88;5032268;28;24428;-73
2022/03/10 08:30:27;;;;;;;27.42;22.65;;;;;;;2.41;61.56;96592.38;5032470;28;24458;-72
2022/03/10 08:32:54;;;;;;;32.42;22.65;;;;;;;2.49;61.08;96588.00;5032925;28;24860;-72
2022/03/10 08:35:20;;;;;;;33.17;22.73;;;;;;;2.78;60.43;96589.16;5032347;28;24794;-73
2022/03/10 08:37:47;;;;;;;33.97;21.92;;;;;;;2.94;59.92;96587.16;5032433;28;24810;-73
2022/03/10 08:40:16;;;;;;;28.23;21.30;;;;;;;3.09;59.18;96584.31;5032864;28;24439;-73
2022/03/10 08:42:42;;;;;;;35.00;22.15;;;;;;;3.24;59.20;96580.59;5033009;28;24439;-72
2022/03/10 08:45:10;;;;;;;29.00;21.75;;;;;;;3.61;58.27;96580.63;5032177;28;24427;-72
2022/03/10 08:47:36;;;;;;;37.25;22.92;;;;;;;4.03;56.83;96570.25;5032638;28;24554;-74
2022/03/10 08:50:04;;;;;;;23.20;20.60;;;;;;;4.19;55.86;96573.25;5032562;28;24431;-73
2022/03/10 08:52:31;;;;;;;27.40;20.33;;;;;;;4.38;56.10;96571.09;5032111;28;24420;-72
2022/03/10 08:54:57;;;;;;;26.75;20.58;;;;;;;4.56;54.83;96573.16;5031191;28;24428;-72
2022/03/10 08:57:25;;;;;;;26.92;21.27;;;;;;;4.58;54.54;96563.72;5032136;28;24451;-73
2022/03/10 08:59:52;;;;;;;29.27;22.15;;;;;;;4.88;54.93;96562.03;5030359;28;24419;-73
2022/03/10 09:02:18;;;;;;;29.27;20.10;;;;;;;5.16;52.55;96556.16;5031551;28;24473;-73
2022/03/10 09:04:45;;;;;;;25.52;17.90;;;;;;;5.37;50.61;96554.66;5032237;28;24428;-73
2022/03/10 09:07:12;;;;;;;25.50;18.38;;;;;;;5.48;50.95;96543.16;5032960;28;24435;-73
2022/03/10 09:09:38;;;;;;;22.77;18.17;;;;;;;5.73;50.35;96548.41;5032745;28;24474;-73
2022/03/10 09:12:06;;;;;;;22.75;17.60;;;;;;;5.84;49.29;96550.66;5032522;28;24963;-73
2022/03/10 09:14:33;;;;;;;23.63;18.55;;;;;;;5.98;49.70;96547.66;5031969;28;24444;-74
2022/03/10 09:17:00;;;;;;;20.20;16.35;;;;;;;6.45;47.67;96543.53;5032542;28;24455;-74
2022/03/10 09:19:26;;;;;;;23.95;15.85;;;;;;;6.72;46.74;96548.63;5032080;28;24428;-76
2022/03/10 09:21:53;;;;;;;19.70;15.77;;;;;;;6.78;46.41;96545.81;5032181;28;24428;-76
2022/03/10 09:24:20;;;;;;;20.70;16.47;;;;;;;6.87;46.40;96542.91;5032130;28;24510;-75
2022/03/10 09:26:46;;;;;;;18.87;16.27;;;;;;;6.97;46.59;96541.69;5032108;28;24501;-75
2022/03/10 09:29:13;;;;;;;17.67;15.03;;;;;;;7.10;45.94;96539.50;5031874;28;24432;-75
2022/03/10 09:31:40;;;;;;;18.05;15.18;;;;;;;7.26;45.44;96534.63;5032327;28;24420;-76
2022/03/10 09:34:08;;;;;;;21.13;15.40;;;;;;;7.52;44.77;96538.78;5031872;28;24494;-76
2022/03/10 09:36:34;;;;;;;18.08;12.88;;;;;;;7.87;45.16;96536.59;5032236;28;24462;-75
2022/03/10 09:39:01;;;;;;;18.08;11.57;;;;;;;8.57;44.56;96538.03;5032047;28;24452;-75
2022/03/10 09:41:28;;;;;;;18.00;13.50;;;;;;;9.10;42.26;96538.28;5032279;28;24423;-75
2022/03/10 09:43:56;;;;;;;17.52;12.93;;;;;;;9.04;41.93;96535.13;5032314;28;24423;-75
2022/03/10 09:46:23;;;;;;;12.52;11.23;;;;;;;9.01;41.44;96536.09;5032138;28;24781;-76
2022/03/10 09:48:54;;;;;;;19.30;11.30;;;;;;;9.31;42.01;96526.13;5031941;28;24438;-74
2022/03/10 09:51:22;;;;;;;15.30;12.63;;;;;;;9.55;43.21;96528.50;5031068;28;20722;-73
2022/03/10 09:53:48;;;;;;;14.57;8.55;;;;;;;10.29;45.52;96521.47;5030788;28;20802;-74
2022/03/10 09:56:15;;;;;;;8.48;7.05;;;;;;;10.72;40.34;96519.31;5030565;28;21245;-74
2022/03/10 09:58:41;;;;;;;9.90;6.82;;;;;;;10.96;38.04;96530.16;5030512;28;21306;-76
2022/03/10 10:01:08;;;;;;;7.82;6.68;;;;;;;10.88;40.62;96522.78;5031181;28;24821;-76
2022/03/10 10:03:34;;;;;;;8.55;6.95;;;;;;;11.32;41.04;96523.97;5031214;28;24999;-75
2022/03/10 10:06:04;;;;;;;8.50;6.40;;;;;;;11.15;36.47;96527.44;5031737;28;24428;-75
2022/03/10 10:08:32;;;;;;;10.07;6.60;;;;;;;11.21;38.78;96521.09;5031282;28;24412;-77
2022/03/10 10:11:00;;;;;;;8.63;5.90;;;;;;;11.47;38.66;96519.69;5031798;28;24471;-77
2022/03/10 10:13:28;;;;;;;12.00;5.50;;;;;;;11.45;37.72;96516.34;5031493;28;21165;-76
2022/03/10 10:15:58;;;;;;;7.70;5.60;;;;;;;11.39;38.48;96515.75;5031024;28;24412;-75
2022/03/10 10:18:24;;;;;;;6.13;5.10;;;;;;;11.41;37.55;96514.84;5031259;28;20830;-74
2022/03/10 10:20:53;;;;;;;6.55;5.15;;;;;;;11.38;37.73;96511.50;5030252;28;24420;-74
2022/03/10 10:23:23;;;;;;;10.55;5.20;;;;;;;11.42;39.15;96513.91;5030183;28;24485;-76
2022/03/10 10:25:52;;;;;;;5.47;4.53;;;;;;;11.63;36.11;96505.78;5030555;28;20673;-75
2022/03/10 10:28:23;;;;;;;7.10;4.68;;;;;;;11.66;35.81;96507.38;5030152;28;24430;-75
2022/03/10 10:30:53;;;;;;;4.82;4.40;;;;;;;11.63;37.52;96503.19;5030697;28;20794;-74
2022/03/10 10:33:19;;;;;;;6.40;4.70;;;;;;;11.71;35.87;96504.53;5030281;28;20768;-78
2022/03/10 10:35:46;;;;;;;6.15;4.28;;;;;;;11.67;36.30;96501.28;5030233;28;20764;-74
2022/03/10 10:38:29;;;;;;;8.65;4.25;;;;;;;11.60;36.24;96494.75;5030246;28;20827;-74
2022/03/10 10:41:21;;;;;;;7.70;4.32;;;;;;;11.73;37.01;96493.16;5030551;28;20776;-75
2022/03/10 10:43:51;;;;;;;6.30;4.30;;;;;;;11.66;36.37;96493.59;5031228;28;20698;-76
2022/03/10 10:46:31;;;;;;;4.72;3.78;;;;;;;11.77;37.32;96479.09;5034060;28;24984;-74
2022/03/10 10:49:01;;;;;;;5.65;4.10;;;;;;;11.70;37.75;96480.34;5034396;28;20678;-76
2022/03/10 10:51:36;;;;;;;6.45;4.10;;;;;;;11.82;37.45;96482.25;5034194;28;24416;-74
2022/03/10 10:54:07;;;;;;;6.30;4.50;;;;;;;11.75;35.42;96472.28;5034172;28;21009;-75
2022/03/10 10:56:35;;;;;;;9.27;4.50;;;;;;;11.65;36.58;96478.94;5034386;28;21307;-74
2022/03/10 10:59:03;;;;;;;5.63;4.32;;;;;;;11.63;35.98;96476.41;5033886;28;24562;-75
2022/03/10 11:01:34;;;;;;;4.40;4.00;;;;;;;11.81;36.22;96477.16;5034065;28;20852;-75
2022/03/10 11:04:01;;;;;;;5.43;4.10;;;;;;;12.06;37.15;96474.03;5033937;28;21080;-74
2022/03/10 11:06:29;;;;;;;5.60;3.90;;;;;;;11.99;35.05;96473.53;5033880;28;24420;-75
2022/03/10 11:08:55;;;;;;;5.18;4.03;;;;;;;12.38;35.14;96479.94;5033475;28;20764;-75
2022/03/10 11:11:25;;;;;;;5.63;4.95;;;;;;;12.45;34.39;96475.22;5033943;28;24426;-75
2022/03/10 11:16:20;;;;;;;5.82;4.47;;;;;;;12.36;34.28;96474.03;5032292;28;24456;-70
2022/03/10 11:18:50;;;;;;;6.53;4.38;;;;;;;12.35;34.20;96462.78;5033005;28;24560;-71
2022/03/10 11:21:38;;;;;;;4.38;3.40;;;;;;;12.39;34.40;96455.66;5033820;28;24458;-70
2022/03/10 11:24:17;;;;;;;5.78;4.32;;;;;;;12.43;33.86;96466.69;5033677;28;24469;-70
2022/03/10 11:26:53;;;;;;;5.03;4.07;;;;;;;12.25;33.92;96455.63;5033371;28;24952;-69
2022/03/10 11:29:24;;;;;;;5.65;4.00;;;;;;;12.36;34.43;96445.44;5033407;28;24519;-70